Time;durP1;ratioP1;P1;durP2;ratioP2;P2;SDS_P1;SDS_P2;PMS_P1;PMS_P2;Temp;Humidity;BMP_temperature;BMP_pressure;BME280_temperature;BME280_humidity;BME280_pressure;Samples;Min_cycle;Max_cycle;Signal;HPM_P1;HPM_P2
2022/04/20 00:00:21;;;;;;;6.55;4.20;;;13.60;78.60;;;;;;5070562;28;20040;-57
2022/04/20 00:02:47;;;;;;;7.15;4.38;;;13.50;78.60;;;;;;5070303;28;20070;-57
2022/04/20 00:05:13;;;;;;;7.10;4.30;;;13.50;79.40;;;;;;5069980;28;20087;-57
2022/04/20 00:07:38;;;;;;;8.35;4.65;;;13.40;78.90;;;;;;5070081;28;20024;-57
2022/04/20 00:10:07;;;;;;;6.85;4.07;;;13.40;79.10;;;;;;5070049;28;20040;-57
2022/04/20 00:12:32;;;;;;;8.60;4.35;;;13.30;79.30;;;;;;5070225;28;20040;-56
2022/04/20 00:14:58;;;;;;;6.78;4.15;;;13.20;79.50;;;;;;5069987;28;20060;-57
2022/04/20 00:17:24;;;;;;;9.52;4.25;;;13.20;80.20;;;;;;5070024;28;20040;-57
2022/04/20 00:19:49;;;;;;;8.43;5.03;;;13.20;79.80;;;;;;5069821;28;20029;-57
2022/04/20 00:22:15;;;;;;;10.90;5.38;;;13.20;79.50;;;;;;5070431;28;20094;-57
2022/04/20 00:24:40;;;;;;;7.32;5.78;;;13.10;79.80;;;;;;5069662;28;20050;-57
2022/04/20 00:27:06;;;;;;;7.57;5.15;;;13.10;79.80;;;;;;5069623;28;20037;-57
2022/04/20 00:29:32;;;;;;;7.57;5.25;;;13.00;79.40;;;;;;5069744;28;20037;-57
2022/04/20 00:31:58;;;;;;;5.97;5.38;;;13.00;79.50;;;;;;5069787;28;20397;-57
2022/04/20 00:34:23;;;;;;;10.77;6.57;;;13.00;79.60;;;;;;5070167;28;20060;-57
2022/04/20 00:36:53;;;;;;;9.43;6.68;;;13.00;79.60;;;;;;5069581;28;20025;-57
2022/04/20 00:39:19;;;;;;;8.00;6.43;;;13.00;79.30;;;;;;5069810;28;20060;-57
2022/04/20 00:41:46;;;;;;;9.32;6.57;;;13.00;79.40;;;;;;5069662;28;20525;-57
2022/04/20 00:44:12;;;;;;;12.85;6.07;;;12.90;79.70;;;;;;5069767;28;20017;-57
2022/04/20 00:46:38;;;;;;;14.90;6.18;;;12.90;79.80;;;;;;5072700;28;20074;-57
2022/04/20 00:49:06;;;;;;;9.88;5.53;;;12.80;79.80;;;;;;5073577;28;20484;-57
2022/04/20 00:51:31;;;;;;;11.07;6.28;;;12.80;80.10;;;;;;5073587;28;20025;-57
2022/04/20 00:54:02;;;;;;;9.48;5.90;;;12.70;80.30;;;;;;5073918;28;20031;-57
2022/04/20 00:56:28;;;;;;;8.43;6.00;;;12.70;80.50;;;;;;5073515;28;20029;-57
2022/04/20 00:58:56;;;;;;;14.38;6.00;;;12.70;80.60;;;;;;5073715;28;20025;-57
2022/04/20 01:01:22;;;;;;;10.45;5.93;;;12.60;80.50;;;;;;5073891;28;20016;-57
2022/04/20 01:03:47;;;;;;;7.43;5.80;;;12.60;80.50;;;;;;5073868;28;20024;-57
2022/04/20 01:06:13;;;;;;;7.50;6.38;;;12.50;80.70;;;;;;5071932;28;20063;-57
2022/04/20 01:08:38;;;;;;;8.93;6.07;;;12.50;80.90;;;;;;5073412;28;20361;-57
2022/04/20 01:11:05;;;;;;;12.40;5.38;;;12.50;80.80;;;;;;5072580;28;20055;-57
2022/04/20 01:13:31;;;;;;;8.05;4.60;;;12.50;80.90;;;;;;5073892;28;20398;-57
2022/04/20 01:15:57;;;;;;;6.25;4.68;;;12.40;81.00;;;;;;5072188;28;20032;-57
2022/04/20 01:18:22;;;;;;;7.15;5.43;;;12.40;81.10;;;;;;5073460;28;20036;-57
2022/04/20 01:20:48;;;;;;;9.45;5.78;;;12.40;80.80;;;;;;5072740;28;20025;-57
2022/04/20 01:23:14;;;;;;;9.85;6.43;;;12.40;81.10;;;;;;5073328;28;20087;-57
2022/04/20 01:25:40;;;;;;;7.22;5.85;;;12.30;81.10;;;;;;5073055;28;20044;-57
2022/04/20 01:28:06;;;;;;;6.85;5.90;;;12.30;81.30;;;;;;5071465;28;20043;-57
2022/04/20 01:30:32;;;;;;;6.55;5.45;;;12.30;81.50;;;;;;5072878;28;20045;-57
2022/04/20 01:32:58;;;;;;;6.03;4.75;;;12.30;81.40;;;;;;5073482;28;20071;-57
2022/04/20 01:35:24;;;;;;;10.00;5.78;;;12.30;81.50;;;;;;5073249;28;20056;-57
2022/04/20 01:37:50;;;;;;;7.72;6.35;;;12.20;81.40;;;;;;5071938;28;20035;-57
2022/04/20 01:40:15;;;;;;;7.85;6.13;;;12.20;81.60;;;;;;5073363;28;20020;-58
2022/04/20 01:42:41;;;;;;;9.45;5.47;;;12.10;81.80;;;;;;5073523;28;20023;-58
2022/04/20 01:45:07;;;;;;;9.60;5.20;;;12.00;82.20;;;;;;5073510;28;20025;-58
2022/04/20 01:47:33;;;;;;;7.35;4.88;;;12.00;82.30;;;;;;5073997;28;20024;-58
2022/04/20 01:49:58;;;;;;;9.20;4.47;;;12.00;82.40;;;;;;5073429;28;20040;-58
2022/04/20 01:52:24;;;;;;;8.20;4.35;;;11.90;82.60;;;;;;5073442;28;20021;-58
2022/04/20 01:54:49;;;;;;;5.93;4.47;;;11.90;82.60;;;;;;5073139;28;20070;-58
2022/04/20 01:57:15;;;;;;;9.13;4.88;;;11.90;82.60;;;;;;5072634;28;20032;-58
2022/04/20 01:59:41;;;;;;;5.72;4.70;;;11.80;82.70;;;;;;5073401;28;20050;-58
2022/04/20 02:04:51;;;;;;;7.00;4.57;;;11.80;83.00;;;;;;5072664;28;20580;-58
2022/04/20 02:07:16;;;;;;;7.80;4.57;;;11.80;83.00;;;;;;5072843;28;20024;-58
2022/04/20 02:09:42;;;;;;;5.97;4.03;;;11.80;83.10;;;;;;5073124;28;20028;-58
2022/04/20 02:12:08;;;;;;;6.78;4.18;;;11.70;83.20;;;;;;5073028;28;20032;-58
2022/04/20 02:14:34;;;;;;;5.70;4.50;;;11.70;83.60;;;;;;5072815;28;20035;-58
2022/04/20 02:17:00;;;;;;;5.68;4.47;;;11.70;83.70;;;;;;5072613;28;20028;-58
2022/04/20 02:19:25;;;;;;;6.13;4.70;;;11.70;83.60;;;;;;5072373;28;20509;-58
2022/04/20 02:21:51;;;;;;;4.75;3.78;;;11.50;84.10;;;;;;5072267;28;20025;-58
2022/04/20 02:24:16;;;;;;;6.65;4.70;;;11.50;84.50;;;;;;5072446;28;20028;-58
2022/04/20 02:26:43;;;;;;;5.57;4.35;;;11.40;84.70;;;;;;5072621;28;20103;-58
2022/04/20 02:29:08;;;;;;;5.05;4.40;;;11.40;84.70;;;;;;5070588;28;20050;-58
2022/04/20 02:31:34;;;;;;;8.25;4.68;;;11.40;84.90;;;;;;5072208;28;20032;-58
2022/04/20 02:33:59;;;;;;;7.40;4.68;;;11.30;85.10;;;;;;5071331;28;20041;-57
2022/04/20 02:36:26;;;;;;;9.25;5.05;;;11.20;85.40;;;;;;5080053;28;20032;-57
2022/04/20 02:38:52;;;;;;;5.93;4.30;;;11.20;85.70;;;;;;5092276;28;20024;-57
2022/04/20 02:41:18;;;;;;;5.25;4.55;;;11.20;85.50;;;;;;5092297;28;20054;-57
2022/04/20 02:43:43;;;;;;;7.72;4.70;;;11.20;85.70;;;;;;5092268;28;20031;-57
2022/04/20 02:46:10;;;;;;;7.95;4.72;;;11.20;86.10;;;;;;5090671;28;20465;-57
2022/04/20 02:48:36;;;;;;;6.72;4.75;;;11.10;86.00;;;;;;5091701;28;20077;-58
2022/04/20 02:51:02;;;;;;;7.55;4.20;;;11.10;86.40;;;;;;5091800;28;20405;-58
2022/04/20 02:53:28;;;;;;;14.35;4.63;;;11.10;86.30;;;;;;5092590;28;20362;-57
2022/04/20 02:55:53;;;;;;;6.32;4.68;;;11.20;85.80;;;;;;5091176;28;20027;-57
2022/04/20 02:58:19;;;;;;;6.97;4.68;;;11.00;86.10;;;;;;5092041;28;20032;-58
2022/04/20 03:00:45;;;;;;;7.43;4.75;;;11.00;86.80;;;;;;5090606;28;20020;-58
2022/04/20 03:03:12;;;;;;;6.63;4.72;;;11.00;86.70;;;;;;5091621;28;20035;-58
2022/04/20 03:05:38;;;;;;;5.10;4.45;;;10.90;87.10;;;;;;5091186;28;20020;-58
2022/04/20 03:08:04;;;;;;;9.95;4.65;;;10.90;87.40;;;;;;5089078;28;20038;-58
2022/04/20 03:10:29;;;;;;;5.97;4.47;;;10.80;87.70;;;;;;5091617;28;20062;-58
2022/04/20 03:12:55;;;;;;;6.57;4.75;;;10.80;87.90;;;;;;5091297;28;20563;-58
2022/04/20 03:15:21;;;;;;;5.93;4.50;;;10.80;87.90;;;;;;5091539;28;20020;-58
2022/04/20 03:17:46;;;;;;;5.88;4.70;;;10.80;88.10;;;;;;5091413;28;20077;-58
2022/04/20 03:20:13;;;;;;;8.23;4.60;;;10.90;87.20;;;;;;5092257;28;20111;-57
2022/04/20 03:22:39;;;;;;;7.85;4.50;;;11.00;87.20;;;;;;5092478;28;20553;-57
2022/04/20 03:25:05;;;;;;;8.23;5.13;;;10.90;86.90;;;;;;5091950;28;20103;-57
2022/04/20 03:27:31;;;;;;;5.32;4.63;;;10.90;87.20;;;;;;5107687;28;20088;-57
2022/04/20 03:29:56;;;;;;;6.40;4.53;;;10.90;87.60;;;;;;5092040;28;20512;-57
2022/04/20 03:32:22;;;;;;;7.75;4.95;;;10.80;87.40;;;;;;5092443;28;20024;-57
2022/04/20 03:34:48;;;;;;;10.70;5.30;;;10.70;87.70;;;;;;5091303;28;20440;-58
2022/04/20 03:37:13;;;;;;;4.75;4.22;;;10.70;88.20;;;;;;5091423;28;20091;-57
2022/04/20 03:39:40;;;;;;;7.53;4.50;;;10.90;87.10;;;;;;5089830;28;20501;-58
2022/04/20 03:42:07;;;;;;;6.05;4.57;;;10.80;88.30;;;;;;5092031;28;20028;-58
2022/04/20 03:44:33;;;;;;;9.07;4.88;;;10.70;87.90;;;;;;5091325;28;20038;-57
2022/04/20 03:46:59;;;;;;;9.18;4.50;;;10.80;88.10;;;;;;5091303;28;20028;-57
2022/04/20 03:49:25;;;;;;;6.55;5.03;;;10.70;88.10;;;;;;5091018;28;20058;-57
2022/04/20 03:51:51;;;;;;;11.90;4.63;;;10.70;88.70;;;;;;5091355;28;20520;-58
2022/04/20 03:54:17;;;;;;;14.77;5.85;;;10.70;88.80;;;;;;5091447;28;20047;-57
2022/04/20 03:59:27;;;;;;;7.70;4.80;;;10.60;89.10;;;;;;5090762;28;20396;-58
2022/04/20 04:01:53;;;;;;;5.55;4.55;;;10.50;89.70;;;;;;5090651;28;20095;-58
2022/04/20 04:04:19;;;;;;;6.20;4.82;;;10.50;89.80;;;;;;5090616;28;20062;-58
2022/04/20 04:06:45;;;;;;;10.27;4.78;;;10.50;90.00;;;;;;5090566;28;20063;-58
2022/04/20 04:09:10;;;;;;;9.27;4.53;;;10.60;89.90;;;;;;5090360;28;20448;-57
2022/04/20 04:11:37;;;;;;;8.77;4.38;;;10.60;89.90;;;;;;5090659;28;20028;-57
2022/04/20 04:14:03;;;;;;;8.20;4.80;;;10.60;89.90;;;;;;5089260;28;20038;-57
2022/04/20 04:16:28;;;;;;;6.72;4.63;;;10.60;90.00;;;;;;5091154;28;20447;-57
2022/04/20 04:18:54;;;;;;;8.68;4.63;;;10.70;89.90;;;;;;5090824;28;20500;-57
2022/04/20 04:21:20;;;;;;;9.48;4.30;;;10.50;90.00;;;;;;5091260;28;20024;-57
2022/04/20 04:23:46;;;;;;;6.60;4.30;;;10.50;90.20;;;;;;5091106;28;20103;-57
2022/04/20 04:26:12;;;;;;;5.72;4.10;;;10.40;90.40;;;;;;5090884;28;20107;-57
2022/04/20 04:28:37;;;;;;;8.30;4.70;;;10.40;90.50;;;;;;5090648;28;20024;-58
2022/04/20 04:31:03;;;;;;;7.75;4.88;;;10.40;90.60;;;;;;5090174;28;20069;-57
2022/04/20 04:33:28;;;;;;;7.93;4.50;;;10.40;90.90;;;;;;5090481;28;20044;-58
2022/04/20 04:35:54;;;;;;;5.90;4.38;;;10.30;90.80;;;;;;5090050;28;20024;-57
2022/04/20 04:38:20;;;;;;;9.50;4.70;;;10.40;90.80;;;;;;5089294;28;20032;-57
2022/04/20 04:40:45;;;;;;;6.85;4.93;;;10.40;90.70;;;;;;5090945;28;20024;-57
2022/04/20 04:43:11;;;;;;;7.97;4.95;;;10.50;90.60;;;;;;5090790;28;20024;-57
2022/04/20 04:51:06;;;;;;;10.55;4.90;;;10.40;90.80;;;;;;5090486;28;20123;-57
2022/04/20 04:53:32;;;;;;;10.35;4.47;;;10.30;91.30;;;;;;5090943;28;20074;-57
2022/04/20 04:55:57;;;;;;;9.48;5.00;;;10.20;91.40;;;;;;5090482;28;20423;-57
2022/04/20 04:58:23;;;;;;;9.70;5.25;;;10.30;91.30;;;;;;5090767;28;20384;-57
2022/04/20 05:00:49;;;;;;;7.72;4.80;;;10.30;91.50;;;;;;5090273;28;20070;-57
2022/04/20 05:03:16;;;;;;;7.90;4.03;;;10.30;91.70;;;;;;5090245;28;20535;-57
2022/04/20 05:05:42;;;;;;;7.95;4.97;;;10.30;91.60;;;;;;5090177;28;20024;-57
2022/04/20 05:08:08;;;;;;;11.35;4.18;;;10.40;91.40;;;;;;5088841;28;20473;-58
2022/04/20 05:10:33;;;;;;;10.40;4.85;;;10.30;91.40;;;;;;5090368;28;20043;-57
2022/04/20 05:13:00;;;;;;;7.68;4.47;;;10.40;91.20;;;;;;5090635;28;20031;-57
2022/04/20 05:15:26;;;;;;;10.13;4.53;;;10.50;91.00;;;;;;5090503;28;20077;-57
2022/04/20 05:17:52;;;;;;;32.45;7.88;;;10.40;91.20;;;;;;5090941;28;20256;-57
2022/04/20 05:20:21;;;;;;;10.65;4.75;;;10.30;92.00;;;;;;5090386;28;20025;-57
2022/04/20 05:22:47;;;;;;;9.45;4.22;;;10.30;91.70;;;;;;5090252;28;20024;-57
2022/04/20 05:25:13;;;;;;;7.18;4.15;;;10.30;91.70;;;;;;5089796;28;20064;-57
2022/04/20 05:27:39;;;;;;;31.98;18.85;;;10.30;91.70;;;;;;5088304;28;20052;-57
2022/04/20 05:30:06;;;;;;;7.13;4.28;;;10.30;91.80;;;;;;5088905;28;20099;-57
2022/04/20 05:32:32;;;;;;;6.25;4.22;;;10.40;91.70;;;;;;5092749;28;20106;-57
2022/04/20 05:34:58;;;;;;;14.75;4.32;;;10.60;91.50;;;;;;5094057;28;20107;-57
2022/04/20 05:42:53;;;;;;;11.60;4.25;;;10.50;91.50;;;;;;5094220;28;20039;-57
2022/04/20 05:45:19;;;;;;;6.97;3.95;;;10.50;91.80;;;;;;5093618;28;20020;-57
2022/04/20 05:47:46;;;;;;;7.35;4.18;;;10.50;91.80;;;;;;5083488;28;20047;-57
2022/04/20 05:50:12;;;;;;;11.98;4.35;;;10.60;92.00;;;;;;5053824;28;20029;-57
2022/04/20 05:52:37;;;;;;;7.80;4.72;;;10.50;92.00;;;;;;5061748;28;20032;-57
2022/04/20 05:55:04;;;;;;;11.93;4.28;;;10.60;92.00;;;;;;5069719;28;20044;-57
2022/04/20 05:57:30;;;;;;;6.55;3.92;;;10.70;92.10;;;;;;5059318;28;21104;-57
2022/04/20 05:59:56;;;;;;;10.73;4.95;;;10.70;91.70;;;;;;5053749;28;20052;-56
2022/04/20 06:02:21;;;;;;;7.95;4.65;;;10.80;91.60;;;;;;5071460;28;20028;-56
2022/04/20 06:04:47;;;;;;;9.98;4.18;;;10.80;91.50;;;;;;5068437;28;20119;-57
2022/04/20 06:07:13;;;;;;;7.25;4.35;;;10.80;91.80;;;;;;5069411;28;20024;-57
2022/04/20 06:09:39;;;;;;;9.50;4.38;;;10.80;91.80;;;;;;5059471;28;20028;-57
2022/04/20 06:12:07;;;;;;;8.77;4.13;;;10.80;92.00;;;;;;5059054;28;20700;-57
2022/04/20 06:14:33;;;;;;;8.65;3.50;;;10.80;91.90;;;;;;5055506;28;20159;-57
2022/04/20 06:16:58;;;;;;;7.40;4.40;;;10.90;91.70;;;;;;5056020;28;20545;-57
2022/04/20 06:19:24;;;;;;;7.45;3.67;;;10.90;91.50;;;;;;5060177;28;20052;-57
2022/04/20 06:21:50;;;;;;;7.97;4.18;;;11.00;91.30;;;;;;5057618;28;20391;-57
2022/04/20 06:24:16;;;;;;;8.88;4.00;;;10.90;91.30;;;;;;5057141;28;20028;-56
2022/04/20 06:26:41;;;;;;;12.43;4.72;;;11.00;91.30;;;;;;5052018;28;20107;-57
2022/04/20 06:29:07;;;;;;;6.50;4.07;;;11.10;91.40;;;;;;5053001;28;20195;-57
2022/04/20 06:31:33;;;;;;;8.38;4.35;;;11.10;91.40;;;;;;5058632;28;20037;-57
2022/04/20 06:33:59;;;;;;;8.70;4.00;;;11.00;91.40;;;;;;5057354;28;20052;-57
2022/04/20 06:36:26;;;;;;;10.65;4.28;;;11.10;91.40;;;;;;5054838;28;20469;-57
2022/04/20 06:38:52;;;;;;;8.32;3.70;;;11.20;91.30;;;;;;5064476;28;20432;-57
2022/04/20 06:41:18;;;;;;;7.78;4.05;;;11.20;90.90;;;;;;5055645;28;20032;-57
2022/04/20 06:43:44;;;;;;;6.28;4.30;;;11.20;91.10;;;;;;5058280;28;20023;-57
2022/04/20 06:46:10;;;;;;;7.97;3.97;;;11.20;91.00;;;;;;5059929;28;20028;-57
2022/04/20 06:48:36;;;;;;;10.68;4.57;;;11.30;91.30;;;;;;5051841;28;20032;-58
2022/04/20 06:51:02;;;;;;;19.25;6.00;;;11.30;91.30;;;;;;5057746;28;20029;-57
2022/04/20 06:58:31;;;;;;;6.07;4.20;;;11.70;90.30;;;;;;5056485;28;20111;-57
2022/04/20 06:59:13;;;;;;;10.18;4.40;;;11.60;90.50;;;;;;5058738;28;20545;-57
2022/04/20 07:01:38;;;;;;;7.00;4.13;;;11.50;90.80;;;;;;5054923;28;21001;-57
2022/04/20 07:04:05;;;;;;;9.30;4.18;;;11.60;90.60;;;;;;5052883;28;20100;-57
2022/04/20 07:06:31;;;;;;;11.25;4.30;;;11.80;90.30;;;;;;5056323;28;20482;-57
2022/04/20 07:08:57;;;;;;;6.13;3.85;;;11.90;90.10;;;;;;5056859;28;20012;-57
2022/04/20 07:11:23;;;;;;;12.82;4.30;;;12.00;89.10;;;;;;5051971;28;20684;-57
2022/04/20 07:13:50;;;;;;;15.30;4.68;;;12.10;89.90;;;;;;5059322;28;20082;-57
2022/04/20 07:16:16;;;;;;;7.65;4.32;;;12.20;89.10;;;;;;5058206;28;20035;-57
2022/04/20 07:18:41;;;;;;;9.20;4.32;;;12.40;89.00;;;;;;5056878;28;20024;-57
2022/04/20 07:21:07;;;;;;;8.63;4.18;;;12.90;87.70;;;;;;5052053;28;20343;-57
2022/04/20 07:23:33;;;;;;;8.20;3.90;;;13.80;84.50;;;;;;5052545;28;20029;-57
2022/04/20 07:25:58;;;;;;;7.75;4.13;;;14.40;81.00;;;;;;5055756;28;20028;-57
2022/04/20 07:28:24;;;;;;;7.40;4.28;;;15.00;79.50;;;;;;5057083;28;21816;-58
2022/04/20 07:30:50;;;;;;;9.85;4.30;;;15.70;76.40;;;;;;5058464;28;20034;-58
2022/04/20 07:33:16;;;;;;;14.55;3.80;;;16.10;74.40;;;;;;5051978;28;20040;-57
2022/04/20 07:35:45;;;;;;;7.13;3.90;;;16.20;73.40;;;;;;5054390;28;20041;-58
2022/04/20 07:38:12;;;;;;;7.00;3.85;;;16.40;73.10;;;;;;5054708;28;20421;-58
2022/04/20 07:40:38;;;;;;;5.82;3.95;;;16.60;70.90;;;;;;5052090;28;20028;-58
2022/04/20 07:43:03;;;;;;;9.85;4.22;;;16.60;72.00;;;;;;5056804;28;20071;-58
2022/04/20 07:45:29;;;;;;;9.00;3.85;;;17.10;70.70;;;;;;5056152;28;20063;-57
2022/04/20 07:47:56;;;;;;;11.52;4.03;;;17.50;69.00;;;;;;5059729;28;20037;-57
2022/04/20 07:50:24;;;;;;;9.90;4.10;;;17.70;68.30;;;;;;5069256;28;20077;-58
2022/04/20 07:53:00;;;;;;;9.95;4.13;;;18.20;66.80;;;;;;5057220;28;20425;-57
2022/04/20 07:55:28;;;;;;;9.35;3.85;;;18.50;66.00;;;;;;5054931;28;20135;-57
2022/04/20 07:57:56;;;;;;;7.13;4.07;;;18.60;65.90;;;;;;5061406;28;20024;-57
2022/04/20 08:00:23;;;;;;;9.55;3.88;;;18.90;64.60;;;;;;5059513;28;20052;-58
2022/04/20 08:02:49;;;;;;;6.50;3.80;;;19.60;63.00;;;;;;5057718;28;20481;-57
2022/04/20 08:05:17;;;;;;;5.35;3.55;;;20.10;61.00;;;;;;5052939;28;20694;-58
2022/04/20 08:07:43;;;;;;;11.82;4.43;;;20.20;59.70;;;;;;5053675;28;20048;-57
2022/04/20 08:10:11;;;;;;;7.18;3.42;;;20.60;59.10;;;;;;5067965;28;20020;-58
2022/04/20 08:12:39;;;;;;;8.55;3.80;;;20.80;59.20;;;;;;5053740;28;21282;-59
2022/04/20 08:15:05;;;;;;;9.57;4.25;;;21.10;58.90;;;;;;5059878;28;20025;-59
2022/04/20 08:17:32;;;;;;;8.60;3.67;;;21.60;57.00;;;;;;5057948;28;20052;-59
2022/04/20 08:19:58;;;;;;;10.18;3.75;;;21.50;57.00;;;;;;5052928;28;20382;-59
2022/04/20 08:22:24;;;;;;;8.68;3.53;;;22.10;56.10;;;;;;5060550;28;20021;-58
2022/04/20 08:24:50;;;;;;;6.95;4.07;;;21.80;56.00;;;;;;5058304;28;20119;-58
2022/04/20 08:27:15;;;;;;;8.57;3.63;;;21.30;57.80;;;;;;5059441;28;20155;-58
2022/04/20 08:29:42;;;;;;;7.28;3.85;;;20.60;58.20;;;;;;5063916;28;20028;-58
2022/04/20 08:32:08;;;;;;;5.93;3.85;;;20.50;58.50;;;;;;5056892;28;20036;-59
2022/04/20 08:34:34;;;;;;;7.30;3.67;;;20.90;58.80;;;;;;5058351;28;20225;-58
2022/04/20 08:37:00;;;;;;;7.18;3.63;;;21.10;57.60;;;;;;5055674;28;20036;-58
2022/04/20 08:39:25;;;;;;;7.18;4.18;;;21.00;59.00;;;;;;5059368;28;20041;-57
2022/04/20 08:41:51;;;;;;;8.55;3.70;;;21.10;57.50;;;;;;5058431;28;20032;-58
2022/04/20 08:44:28;;;;;;;7.88;4.10;;;21.40;57.40;;;;;;5056239;28;20027;-59
2022/04/20 08:46:59;;;;;;;12.68;3.97;;;22.10;56.60;;;;;;5054766;28;20020;-58
2022/04/20 08:49:24;;;;;;;9.23;3.65;;;22.30;56.10;;;;;;5056474;28;20024;-58
2022/04/20 08:54:36;;;;;;;8.48;3.53;;;22.00;54.80;;;;;;5055582;28;20555;-58
2022/04/20 08:57:19;;;;;;;11.20;3.65;;;21.40;55.90;;;;;;5053862;28;20984;-58
2022/04/20 08:59:50;;;;;;;8.80;3.50;;;21.20;56.10;;;;;;5050015;28;20052;-58
2022/04/20 09:02:17;;;;;;;7.18;3.63;;;21.30;55.10;;;;;;5055076;28;20379;-58
2022/04/20 09:04:43;;;;;;;9.55;3.90;;;21.40;55.80;;;;;;5053950;28;20025;-58
2022/04/20 09:07:10;;;;;;;9.23;3.88;;;21.70;55.70;;;;;;5062748;28;20028;-58
2022/04/20 09:09:36;;;;;;;8.13;4.10;;;21.70;55.50;;;;;;5059825;28;20024;-58
2022/04/20 09:12:14;;;;;;;8.75;4.18;;;22.00;55.80;;;;;;5057076;28;20028;-58
2022/04/20 09:14:41;;;;;;;6.70;3.60;;;22.00;56.00;;;;;;5060430;28;20024;-58
2022/04/20 09:17:10;;;;;;;10.50;3.78;;;22.50;55.30;;;;;;5057125;28;20056;-58
2022/04/20 09:19:37;;;;;;;4.82;3.88;;;22.60;53.80;;;;;;5055249;28;20059;-58
2022/04/20 09:22:18;;;;;;;6.32;3.90;;;22.60;53.20;;;;;;5060655;28;20082;-58
2022/04/20 09:25:07;;;;;;;6.20;4.18;;;21.80;53.90;;;;;;5049025;28;20028;-58
2022/04/20 09:27:40;;;;;;;7.40;4.18;;;22.00;54.50;;;;;;5056911;28;20029;-58
2022/04/20 09:30:11;;;;;;;10.57;4.20;;;22.30;53.40;;;;;;5054382;28;20204;-58
2022/04/20 09:32:39;;;;;;;6.55;3.55;;;21.90;54.10;;;;;;5057439;28;20017;-58
2022/04/20 09:35:08;;;;;;;5.80;4.05;;;22.10;53.90;;;;;;5061587;28;20078;-58
2022/04/20 09:37:34;;;;;;;11.70;4.00;;;22.60;52.90;;;;;;5057452;28;20028;-59
2022/04/20 09:40:01;;;;;;;7.55;3.65;;;21.90;54.20;;;;;;5058182;28;20036;-57
2022/04/20 09:42:27;;;;;;;9.20;3.70;;;21.70;53.40;;;;;;5058369;28;20147;-57
2022/04/20 09:45:06;;;;;;;7.95;3.70;;;21.90;54.20;;;;;;5057591;28;20167;-58
2022/04/20 09:50:26;;;;;;;6.75;3.88;;;21.80;54.20;;;;;;5060565;28;20092;-57
2022/04/20 09:53:02;;;;;;;7.05;4.30;;;22.30;54.10;;;;;;5062256;28;20032;-57
2022/04/20 09:55:37;;;;;;;7.50;3.80;;;22.30;53.10;;;;;;5061591;28;20596;-58
2022/04/20 09:58:15;;;;;;;6.60;4.05;;;22.00;52.10;;;;;;5059942;28;20626;-57
2022/04/20 10:00:45;;;;;;;5.53;3.78;;;22.20;52.90;;;;;;5063220;28;20059;-57
2022/04/20 10:03:21;;;;;;;7.40;3.95;;;22.70;52.40;;;;;;5059066;28;20032;-58
2022/04/20 10:05:47;;;;;;;8.25;4.18;;;22.50;52.40;;;;;;5060534;28;20012;-58
2022/04/20 10:08:12;;;;;;;8.10;3.83;;;22.80;51.90;;;;;;5062415;28;20119;-58
2022/04/20 10:10:39;;;;;;;12.80;3.83;;;22.60;50.50;;;;;;5073463;28;20118;-58
2022/04/20 10:13:05;;;;;;;7.57;3.50;;;22.30;51.90;;;;;;5061546;28;20035;-58
2022/04/20 10:18:21;;;;;;;13.82;3.60;;;23.00;51.60;;;;;;5058229;28;20063;-57
2022/04/20 10:21:01;;;;;;;5.95;3.45;;;22.80;49.20;;;;;;5060124;28;20031;-58
2022/04/20 10:23:29;;;;;;;8.55;3.08;;;22.70;50.80;;;;;;5069855;28;20692;-58
2022/04/20 10:25:56;;;;;;;8.75;2.95;;;22.80;50.50;;;;;;5065166;28;20485;-58
2022/04/20 10:28:52;;;;;;;4.13;2.83;;;23.20;49.70;;;;;;5064798;28;20516;-63
2022/04/20 10:31:42;;;;;;;7.53;3.25;;;23.10;48.30;;;;;;5068473;28;20082;-59
2022/04/20 10:34:15;;;;;;;6.15;3.03;;;22.50;49.90;;;;;;5065981;28;20078;-58
2022/04/20 10:36:58;;;;;;;11.20;2.92;;;22.70;49.80;;;;;;5067771;28;20025;-58
2022/04/20 10:39:27;;;;;;;4.95;2.65;;;23.40;48.50;;;;;;5067116;28;20091;-59
2022/04/20 10:42:17;;;;;;;6.60;2.88;;;23.50;49.80;;;;;;5070540;28;20044;-58
2022/04/20 10:45:04;;;;;;;5.07;2.88;;;23.30;48.20;;;;;;5069951;28;20020;-58
2022/04/20 10:47:42;;;;;;;5.03;3.13;;;22.70;48.80;;;;;;5071061;28;20020;-60
2022/04/20 10:50:17;;;;;;;7.35;2.92;;;22.60;50.00;;;;;;5072347;28;20031;-59
2022/04/20 10:52:52;;;;;;;22.13;4.05;;;22.90;49.30;;;;;;5072224;28;20456;-58
2022/04/20 10:55:29;;;;;;;12.80;3.47;;;23.50;48.90;;;;;;5067531;28;20085;-58
2022/04/20 10:57:58;;;;;;;3.85;3.30;;;22.60;49.00;;;;;;5069716;28;20032;-58
2022/04/20 11:00:26;;;;;;;4.57;3.13;;;22.40;50.90;;;;;;5056673;28;20482;-58
2022/04/20 11:02:51;;;;;;;4.00;3.40;;;22.50;50.60;;;;;;5071741;28;20105;-59
2022/04/20 11:05:24;;;;;;;4.97;3.75;;;22.80;50.40;;;;;;5071753;28;20096;-59
2022/04/20 11:08:03;;;;;;;4.53;3.60;;;23.30;50.20;;;;;;5071834;28;20116;-58
2022/04/20 11:10:29;;;;;;;6.10;3.58;;;23.10;49.30;;;;;;5071661;28;20032;-58
2022/04/20 11:19:15;;;;;;;6.15;3.90;;;22.70;51.80;;;;;;5071239;28;20051;-58
2022/04/20 11:22:07;;;;;;;6.53;4.03;;;22.90;50.50;;;;;;5070536;28;20025;-58
2022/04/20 11:24:32;;;;;;;11.68;4.00;;;22.80;50.70;;;;;;5069675;28;20058;-58
2022/04/20 11:26:58;;;;;;;4.38;3.35;;;23.30;51.00;;;;;;5071017;28;20060;-58
2022/04/20 11:29:28;;;;;;;6.13;3.63;;;24.20;49.30;;;;;;5070032;28;20103;-59
2022/04/20 11:31:59;;;;;;;9.65;3.90;;;24.60;48.30;;;;;;5070791;28;20050;-59
2022/04/20 11:34:27;;;;;;;5.20;3.45;;;24.90;47.80;;;;;;5071217;28;20060;-58
2022/04/20 11:36:55;;;;;;;18.52;4.65;;;24.80;47.70;;;;;;5071197;28;20510;-58
2022/04/20 11:39:23;;;;;;;5.32;3.20;;;24.70;47.20;;;;;;5070639;28;20036;-58
2022/04/20 11:41:56;;;;;;;4.05;3.30;;;24.90;47.40;;;;;;5070798;28;20452;-59
2022/04/20 11:44:24;;;;;;;13.02;4.03;;;25.30;46.80;;;;;;5070634;28;20432;-58
2022/04/20 11:46:50;;;;;;;6.13;3.33;;;24.90;47.50;;;;;;5070497;28;20052;-58
2022/04/20 11:49:17;;;;;;;5.45;3.30;;;25.40;47.20;;;;;;5069146;28;20123;-58
2022/04/20 11:52:00;;;;;;;5.65;3.33;;;25.30;47.50;;;;;;5070945;28;20024;-58
2022/04/20 11:54:30;;;;;;;4.20;3.30;;;24.20;47.30;;;;;;5070186;28;20051;-58
2022/04/20 11:56:56;;;;;;;7.35;3.47;;;23.70;48.30;;;;;;5070271;28;20050;-58
2022/04/20 11:59:24;;;;;;;6.18;2.90;;;23.80;48.70;;;;;;5070336;28;20024;-59
2022/04/20 12:01:50;;;;;;;20.52;5.13;;;24.40;47.90;;;;;;5069066;28;20043;-58
2022/04/20 12:04:18;;;;;;;5.45;2.90;;;24.70;47.40;;;;;;5070840;28;20505;-58
2022/04/20 12:06:55;;;;;;;6.63;3.10;;;24.90;47.60;;;;;;5070479;28;20324;-58
2022/04/20 12:09:29;;;;;;;4.68;3.17;;;25.20;46.20;;;;;;5070264;28;20501;-58
2022/04/20 12:11:57;;;;;;;5.35;2.65;;;25.30;46.20;;;;;;5070267;28;20500;-58
2022/04/20 12:14:33;;;;;;;4.78;2.63;;;24.90;47.60;;;;;;5070532;28;20036;-58
2022/04/20 12:17:02;;;;;;;4.93;3.10;;;24.80;47.00;;;;;;5070596;28;20028;-58
2022/04/20 12:19:28;;;;;;;5.93;2.53;;;24.50;46.60;;;;;;5070316;28;20079;-58
2022/04/20 12:21:54;;;;;;;6.93;2.65;;;24.80;46.90;;;;;;5070413;28;20013;-58
2022/04/20 12:24:26;;;;;;;5.45;2.40;;;25.60;47.50;;;;;;5070496;28;20027;-58
2022/04/20 12:26:55;;;;;;;3.15;2.58;;;25.90;46.20;;;;;;5070351;28;20028;-58
2022/04/20 12:29:26;;;;;;;5.85;2.80;;;25.20;46.20;;;;;;5070053;28;20047;-58
2022/04/20 12:31:56;;;;;;;7.63;2.85;;;23.50;47.20;;;;;;5070235;28;20516;-58
2022/04/20 12:34:25;;;;;;;8.52;3.10;;;24.30;48.50;;;;;;5069978;28;20111;-58
2022/04/20 12:36:58;;;;;;;8.25;3.17;;;24.90;47.20;;;;;;5070538;28;20028;-58
2022/04/20 12:39:38;;;;;;;4.53;2.72;;;24.90;46.50;;;;;;5069878;28;20089;-57
2022/04/20 12:42:12;;;;;;;9.10;2.90;;;24.20;47.10;;;;;;5076701;28;20373;-57
2022/04/20 12:44:52;;;;;;;3.80;2.53;;;24.50;47.20;;;;;;5076707;28;20087;-57
2022/04/20 12:47:18;;;;;;;8.07;3.15;;;24.90;47.80;;;;;;5076728;28;20385;-58
2022/04/20 12:49:48;;;;;;;8.60;3.00;;;25.70;46.40;;;;;;5076349;28;20024;-58
2022/04/20 12:52:15;;;;;;;5.60;3.25;;;25.90;46.50;;;;;;5076757;28;20364;-59
2022/04/20 12:54:57;;;;;;;5.80;2.92;;;26.20;45.90;;;;;;5076510;28;20103;-59
2022/04/20 13:03:06;;;;;;;8.57;3.50;;;25.90;45.60;;;;;;5076876;28;20034;-58
2022/04/20 13:05:35;;;;;;;7.63;3.28;;;24.30;45.90;;;;;;5076437;28;20024;-58
2022/04/20 13:08:01;;;;;;;3.50;3.20;;;23.70;48.50;;;;;;5076209;28;20099;-58
2022/04/20 13:10:29;;;;;;;6.75;2.72;;;24.30;48.60;;;;;;5076389;28;20027;-58
2022/04/20 13:12:56;;;;;;;5.32;3.20;;;24.80;47.40;;;;;;5076896;28;20075;-58
2022/04/20 13:15:24;;;;;;;14.13;3.88;;;25.40;46.70;;;;;;5070939;28;20462;-58
2022/04/20 13:17:51;;;;;;;6.57;3.38;;;25.40;45.40;;;;;;5056091;28;20780;-59
2022/04/20 13:20:18;;;;;;;7.07;3.40;;;24.80;47.40;;;;;;5056182;28;20025;-58
2022/04/20 13:22:44;;;;;;;7.72;3.60;;;25.20;46.20;;;;;;5066624;28;20021;-58
2022/04/20 13:27:54;;;;;;;7.38;3.60;;;25.00;46.60;;;;;;5076351;28;20032;-58
2022/04/20 13:30:38;;;;;;;7.13;3.35;;;25.10;47.10;;;;;;5096175;28;20024;-59